sensor_id;sensor_type;location;lat;lon;timestamp;P1;durP1;ratioP1;P2;durP2;ratioP2
51527;SDS011;37612;51.768;21.590;2023-03-05T00:03:06;7.00;;;1.90;;
51527;SDS011;37612;51.768;21.590;2023-03-05T00:07:09;8.20;;;1.50;;
51527;SDS011;37612;51.768;21.590;2023-03-05T00:11:13;3.10;;;1.50;;
51527;SDS011;37612;51.768;21.590;2023-03-05T00:15:16;6.90;;;1.80;;
51527;SDS011;37612;51.768;21.590;2023-03-05T00:19:17;4.90;;;2.00;;
51527;SDS011;37612;51.768;21.590;2023-03-05T00:23:19;5.40;;;2.00;;
51527;SDS011;37612;51.768;21.590;2023-03-05T00:27:21;7.00;;;1.90;;
51527;SDS011;37612;51.768;21.590;2023-03-05T00:35:30;6.80;;;1.70;;
51527;SDS011;37612;51.768;21.590;2023-03-05T00:39:31;5.00;;;1.90;;
51527;SDS011;37612;51.768;21.590;2023-03-05T00:43:34;7.10;;;2.30;;
51527;SDS011;37612;51.768;21.590;2023-03-05T00:47:37;6.00;;;2.10;;
51527;SDS011;37612;51.768;21.590;2023-03-05T00:51:45;6.10;;;2.00;;
51527;SDS011;37612;51.768;21.590;2023-03-05T00:55:53;7.00;;;2.00;;
51527;SDS011;37612;51.768;21.590;2023-03-05T00:59:54;7.70;;;1.90;;
51527;SDS011;37612;51.768;21.590;2023-03-05T01:04:14;6.70;;;1.60;;
51527;SDS011;37612;51.768;21.590;2023-03-05T01:12:18;8.20;;;2.00;;
51527;SDS011;37612;51.768;21.590;2023-03-05T01:16:19;7.30;;;2.00;;
51527;SDS011;37612;51.768;21.590;2023-03-05T01:20:21;8.90;;;1.60;;
51527;SDS011;37612;51.768;21.590;2023-03-05T01:24:24;4.60;;;1.90;;
51527;SDS011;37612;51.768;21.590;2023-03-05T01:28:26;4.30;;;1.70;;
51527;SDS011;37612;51.768;21.590;2023-03-05T01:32:43;7.20;;;2.20;;
51527;SDS011;37612;51.768;21.590;2023-03-05T01:36:44;7.10;;;2.60;;
51527;SDS011;37612;51.768;21.590;2023-03-05T01:40:45;5.90;;;2.20;;
51527;SDS011;37612;51.768;21.590;2023-03-05T01:49:14;8.50;;;2.30;;
51527;SDS011;37612;51.768;21.590;2023-03-05T01:53:34;4.60;;;1.70;;
51527;SDS011;37612;51.768;21.590;2023-03-05T01:57:43;7.00;;;2.30;;
51527;SDS011;37612;51.768;21.590;2023-03-05T02:01:49;13.20;;;2.60;;
51527;SDS011;37612;51.768;21.590;2023-03-05T02:05:58;9.30;;;2.30;;
51527;SDS011;37612;51.768;21.590;2023-03-05T02:10:00;8.30;;;2.50;;
51527;SDS011;37612;51.768;21.590;2023-03-05T02:14:02;8.90;;;2.40;;
51527;SDS011;37612;51.768;21.590;2023-03-05T02:18:06;8.10;;;2.70;;
51527;SDS011;37612;51.768;21.590;2023-03-05T02:22:13;7.60;;;2.80;;
51527;SDS011;37612;51.768;21.590;2023-03-05T02:26:17;8.80;;;3.30;;
51527;SDS011;37612;51.768;21.590;2023-03-05T02:30:19;8.50;;;3.10;;
51527;SDS011;37612;51.768;21.590;2023-03-05T02:34:23;10.20;;;5.40;;
51527;SDS011;37612;51.768;21.590;2023-03-05T02:38:24;22.20;;;12.20;;
51527;SDS011;37612;51.768;21.590;2023-03-05T02:42:32;20.70;;;11.60;;
51527;SDS011;37612;51.768;21.590;2023-03-05T02:46:40;11.70;;;4.00;;
51527;SDS011;37612;51.768;21.590;2023-03-05T02:50:42;11.20;;;3.60;;
51527;SDS011;37612;51.768;21.590;2023-03-05T02:54:44;10.70;;;4.60;;
51527;SDS011;37612;51.768;21.590;2023-03-05T02:58:45;10.70;;;3.90;;
51527;SDS011;37612;51.768;21.590;2023-03-05T03:02:55;13.80;;;5.70;;
51527;SDS011;37612;51.768;21.590;2023-03-05T03:06:58;11.50;;;5.00;;
51527;SDS011;37612;51.768;21.590;2023-03-05T03:11:03;13.50;;;5.60;;
51527;SDS011;37612;51.768;21.590;2023-03-05T03:15:10;12.40;;;5.30;;
51527;SDS011;37612;51.768;21.590;2023-03-05T03:19:12;11.20;;;4.90;;
51527;SDS011;37612;51.768;21.590;2023-03-05T03:23:16;15.90;;;6.10;;
51527;SDS011;37612;51.768;21.590;2023-03-05T03:27:18;28.60;;;10.10;;
51527;SDS011;37612;51.768;21.590;2023-03-05T03:31:19;22.30;;;10.40;;
51527;SDS011;37612;51.768;21.590;2023-03-05T03:35:20;15.00;;;5.40;;
51527;SDS011;37612;51.768;21.590;2023-03-05T03:39:23;13.60;;;5.20;;
51527;SDS011;37612;51.768;21.590;2023-03-05T03:43:25;10.40;;;5.60;;
51527;SDS011;37612;51.768;21.590;2023-03-05T03:47:26;14.40;;;7.00;;
51527;SDS011;37612;51.768;21.590;2023-03-05T03:51:28;16.90;;;7.10;;
51527;SDS011;37612;51.768;21.590;2023-03-05T03:55:30;22.10;;;7.40;;
51527;SDS011;37612;51.768;21.590;2023-03-05T03:59:31;20.80;;;7.30;;
51527;SDS011;37612;51.768;21.590;2023-03-05T04:03:32;18.60;;;7.80;;
51527;SDS011;37612;51.768;21.590;2023-03-05T04:07:34;15.50;;;7.20;;
51527;SDS011;37612;51.768;21.590;2023-03-05T04:11:36;18.60;;;8.10;;
51527;SDS011;37612;51.768;21.590;2023-03-05T04:15:38;28.40;;;13.00;;
51527;SDS011;37612;51.768;21.590;2023-03-05T04:19:40;17.50;;;10.00;;
51527;SDS011;37612;51.768;21.590;2023-03-05T04:23:42;20.70;;;8.00;;
51527;SDS011;37612;51.768;21.590;2023-03-05T04:27:43;18.50;;;8.10;;
51527;SDS011;37612;51.768;21.590;2023-03-05T04:31:45;17.30;;;6.50;;
51527;SDS011;37612;51.768;21.590;2023-03-05T04:35:46;12.70;;;4.70;;
51527;SDS011;37612;51.768;21.590;2023-03-05T04:39:47;18.30;;;4.50;;
51527;SDS011;37612;51.768;21.590;2023-03-05T04:43:48;14.10;;;4.10;;
51527;SDS011;37612;51.768;21.590;2023-03-05T04:47:50;15.00;;;4.90;;
51527;SDS011;37612;51.768;21.590;2023-03-05T04:51:51;9.90;;;4.00;;
51527;SDS011;37612;51.768;21.590;2023-03-05T04:55:53;8.80;;;3.70;;
51527;SDS011;37612;51.768;21.590;2023-03-05T04:59:55;18.30;;;4.70;;
51527;SDS011;37612;51.768;21.590;2023-03-05T05:03:56;15.50;;;3.90;;
51527;SDS011;37612;51.768;21.590;2023-03-05T05:07:57;12.70;;;4.20;;
51527;SDS011;37612;51.768;21.590;2023-03-05T05:11:59;18.10;;;5.00;;
51527;SDS011;37612;51.768;21.590;2023-03-05T05:16:00;13.60;;;5.40;;
51527;SDS011;37612;51.768;21.590;2023-03-05T05:20:02;11.80;;;4.30;;
51527;SDS011;37612;51.768;21.590;2023-03-05T05:24:11;18.40;;;4.90;;
51527;SDS011;37612;51.768;21.590;2023-03-05T05:28:12;13.40;;;4.10;;
51527;SDS011;37612;51.768;21.590;2023-03-05T05:32:13;14.40;;;4.30;;
51527;SDS011;37612;51.768;21.590;2023-03-05T05:36:15;10.10;;;3.40;;
51527;SDS011;37612;51.768;21.590;2023-03-05T05:40:19;9.80;;;4.00;;
51527;SDS011;37612;51.768;21.590;2023-03-05T05:44:20;13.40;;;4.60;;
51527;SDS011;37612;51.768;21.590;2023-03-05T05:48:21;14.30;;;5.00;;
51527;SDS011;37612;51.768;21.590;2023-03-05T05:52:24;13.90;;;5.30;;
51527;SDS011;37612;51.768;21.590;2023-03-05T05:56:25;12.00;;;4.60;;
51527;SDS011;37612;51.768;21.590;2023-03-05T06:00:27;23.70;;;8.60;;
51527;SDS011;37612;51.768;21.590;2023-03-05T06:04:28;24.70;;;8.00;;
51527;SDS011;37612;51.768;21.590;2023-03-05T06:08:29;18.50;;;5.50;;
51527;SDS011;37612;51.768;21.590;2023-03-05T06:12:30;15.30;;;5.90;;
51527;SDS011;37612;51.768;21.590;2023-03-05T06:16:32;17.80;;;6.90;;
51527;SDS011;37612;51.768;21.590;2023-03-05T06:20:33;15.40;;;7.10;;
51527;SDS011;37612;51.768;21.590;2023-03-05T06:24:35;16.30;;;6.30;;
51527;SDS011;37612;51.768;21.590;2023-03-05T06:28:37;20.30;;;6.40;;
51527;SDS011;37612;51.768;21.590;2023-03-05T06:32:39;20.00;;;6.30;;
51527;SDS011;37612;51.768;21.590;2023-03-05T06:36:41;12.60;;;5.30;;
51527;SDS011;37612;51.768;21.590;2023-03-05T06:40:43;15.30;;;5.20;;
51527;SDS011;37612;51.768;21.590;2023-03-05T06:44:44;12.60;;;4.90;;
51527;SDS011;37612;51.768;21.590;2023-03-05T06:48:45;13.20;;;4.90;;
51527;SDS011;37612;51.768;21.590;2023-03-05T06:52:48;26.00;;;13.50;;
51527;SDS011;37612;51.768;21.590;2023-03-05T06:56:51;20.80;;;9.80;;
51527;SDS011;37612;51.768;21.590;2023-03-05T07:00:52;14.50;;;6.80;;
51527;SDS011;37612;51.768;21.590;2023-03-05T07:04:53;21.90;;;7.10;;
51527;SDS011;37612;51.768;21.590;2023-03-05T07:08:55;193.90;;;122.80;;
51527;SDS011;37612;51.768;21.590;2023-03-05T07:12:58;28.70;;;15.00;;
51527;SDS011;37612;51.768;21.590;2023-03-05T07:16:59;14.90;;;6.40;;
51527;SDS011;37612;51.768;21.590;2023-03-05T07:21:02;24.20;;;11.00;;
51527;SDS011;37612;51.768;21.590;2023-03-05T07:25:07;23.10;;;11.00;;
51527;SDS011;37612;51.768;21.590;2023-03-05T07:29:09;14.60;;;6.60;;
51527;SDS011;37612;51.768;21.590;2023-03-05T07:33:10;16.80;;;6.50;;
51527;SDS011;37612;51.768;21.590;2023-03-05T07:37:12;12.50;;;4.60;;
51527;SDS011;37612;51.768;21.590;2023-03-05T07:41:15;15.10;;;7.90;;
51527;SDS011;37612;51.768;21.590;2023-03-05T07:45:23;10.90;;;4.30;;
51527;SDS011;37612;51.768;21.590;2023-03-05T07:49:25;17.30;;;8.70;;
51527;SDS011;37612;51.768;21.590;2023-03-05T07:53:26;8.90;;;4.20;;
51527;SDS011;37612;51.768;21.590;2023-03-05T07:57:27;10.00;;;2.60;;
51527;SDS011;37612;51.768;21.590;2023-03-05T08:01:29;14.40;;;10.00;;
51527;SDS011;37612;51.768;21.590;2023-03-05T08:05:31;12.20;;;7.70;;
51527;SDS011;37612;51.768;21.590;2023-03-05T08:09:33;7.40;;;5.10;;
51527;SDS011;37612;51.768;21.590;2023-03-05T08:13:34;10.10;;;5.20;;
51527;SDS011;37612;51.768;21.590;2023-03-05T08:17:36;24.20;;;15.40;;
51527;SDS011;37612;51.768;21.590;2023-03-05T08:21:37;12.10;;;7.10;;
51527;SDS011;37612;51.768;21.590;2023-03-05T08:25:38;16.70;;;9.30;;
51527;SDS011;37612;51.768;21.590;2023-03-05T08:29:39;44.40;;;22.10;;
51527;SDS011;37612;51.768;21.590;2023-03-05T08:33:41;6.40;;;2.60;;
51527;SDS011;37612;51.768;21.590;2023-03-05T08:37:42;33.60;;;13.90;;
51527;SDS011;37612;51.768;21.590;2023-03-05T08:41:44;6.40;;;3.00;;
51527;SDS011;37612;51.768;21.590;2023-03-05T08:45:45;7.40;;;2.80;;
51527;SDS011;37612;51.768;21.590;2023-03-05T08:49:47;6.10;;;2.40;;
51527;SDS011;37612;51.768;21.590;2023-03-05T08:53:48;5.70;;;2.60;;
51527;SDS011;37612;51.768;21.590;2023-03-05T08:57:50;7.40;;;2.80;;
51527;SDS011;37612;51.768;21.590;2023-03-05T09:01:51;8.30;;;2.80;;
51527;SDS011;37612;51.768;21.590;2023-03-05T09:05:52;7.20;;;2.50;;
51527;SDS011;37612;51.768;21.590;2023-03-05T09:09:54;5.40;;;2.00;;
51527;SDS011;37612;51.768;21.590;2023-03-05T09:13:55;4.70;;;2.10;;
51527;SDS011;37612;51.768;21.590;2023-03-05T09:17:57;6.00;;;2.20;;
51527;SDS011;37612;51.768;21.590;2023-03-05T09:21:59;5.80;;;2.40;;
51527;SDS011;37612;51.768;21.590;2023-03-05T09:26:00;7.80;;;3.90;;
51527;SDS011;37612;51.768;21.590;2023-03-05T09:30:22;5.80;;;2.70;;
51527;SDS011;37612;51.768;21.590;2023-03-05T09:34:30;7.00;;;2.90;;
51527;SDS011;37612;51.768;21.590;2023-03-05T09:38:51;11.40;;;4.60;;
51527;SDS011;37612;51.768;21.590;2023-03-05T09:43:08;6.20;;;2.70;;
51527;SDS011;37612;51.768;21.590;2023-03-05T09:51:30;10.40;;;6.00;;
51527;SDS011;37612;51.768;21.590;2023-03-05T09:55:38;9.20;;;5.60;;
51527;SDS011;37612;51.768;21.590;2023-03-05T09:59:57;7.60;;;5.20;;
51527;SDS011;37612;51.768;21.590;2023-03-05T10:08:13;12.10;;;4.70;;
51527;SDS011;37612;51.768;21.590;2023-03-05T10:12:43;9.10;;;4.60;;
51527;SDS011;37612;51.768;21.590;2023-03-05T10:16:57;12.80;;;6.80;;
51527;SDS011;37612;51.768;21.590;2023-03-05T10:21:30;7.80;;;2.90;;
51527;SDS011;37612;51.768;21.590;2023-03-05T10:25:55;7.30;;;2.70;;
51527;SDS011;37612;51.768;21.590;2023-03-05T10:39:07;8.00;;;3.30;;
51527;SDS011;37612;51.768;21.590;2023-03-05T10:48:05;27.40;;;11.90;;
51527;SDS011;37612;51.768;21.590;2023-03-05T10:52:15;13.30;;;5.50;;
51527;SDS011;37612;51.768;21.590;2023-03-05T10:56:22;13.70;;;5.50;;
51527;SDS011;37612;51.768;21.590;2023-03-05T11:00:26;79.70;;;24.90;;
51527;SDS011;37612;51.768;21.590;2023-03-05T11:04:28;17.70;;;6.60;;
51527;SDS011;37612;51.768;21.590;2023-03-05T11:08:37;16.50;;;9.20;;
51527;SDS011;37612;51.768;21.590;2023-03-05T11:12:39;17.40;;;9.20;;
51527;SDS011;37612;51.768;21.590;2023-03-05T11:16:47;25.50;;;15.40;;
51527;SDS011;37612;51.768;21.590;2023-03-05T11:20:50;28.50;;;13.30;;
51527;SDS011;37612;51.768;21.590;2023-03-05T11:29:24;33.10;;;16.30;;
51527;SDS011;37612;51.768;21.590;2023-03-05T11:33:29;18.40;;;14.00;;
51527;SDS011;37612;51.768;21.590;2023-03-05T11:37:31;12.10;;;6.00;;
51527;SDS011;37612;51.768;21.590;2023-03-05T11:41:49;9.80;;;3.30;;
51527;SDS011;37612;51.768;21.590;2023-03-05T11:46:01;9.20;;;3.60;;
51527;SDS011;37612;51.768;21.590;2023-03-05T11:54:20;14.40;;;6.40;;
51527;SDS011;37612;51.768;21.590;2023-03-05T12:02:29;8.00;;;3.40;;
51527;SDS011;37612;51.768;21.590;2023-03-05T12:06:35;10.70;;;4.40;;
51527;SDS011;37612;51.768;21.590;2023-03-05T12:10:40;14.10;;;6.00;;
51527;SDS011;37612;51.768;21.590;2023-03-05T12:14:48;43.80;;;16.30;;
51527;SDS011;37612;51.768;21.590;2023-03-05T12:23:02;19.50;;;7.40;;
51527;SDS011;37612;51.768;21.590;2023-03-05T12:27:06;11.60;;;5.60;;
51527;SDS011;37612;51.768;21.590;2023-03-05T12:31:26;21.80;;;8.40;;
51527;SDS011;37612;51.768;21.590;2023-03-05T12:35:38;37.50;;;12.20;;
51527;SDS011;37612;51.768;21.590;2023-03-05T12:43:44;16.00;;;6.70;;
51527;SDS011;37612;51.768;21.590;2023-03-05T12:51:59;12.10;;;4.60;;
51527;SDS011;37612;51.768;21.590;2023-03-05T12:56:12;13.50;;;4.70;;
51527;SDS011;37612;51.768;21.590;2023-03-05T13:00:32;9.80;;;4.10;;
51527;SDS011;37612;51.768;21.590;2023-03-05T13:04:50;12.80;;;4.50;;
51527;SDS011;37612;51.768;21.590;2023-03-05T13:09:07;11.80;;;5.30;;
51527;SDS011;37612;51.768;21.590;2023-03-05T13:13:13;11.50;;;4.70;;
51527;SDS011;37612;51.768;21.590;2023-03-05T13:17:37;12.30;;;4.10;;
51527;SDS011;37612;51.768;21.590;2023-03-05T13:21:45;10.60;;;4.70;;
51527;SDS011;37612;51.768;21.590;2023-03-05T13:25:56;11.70;;;5.30;;
51527;SDS011;37612;51.768;21.590;2023-03-05T13:30:19;11.30;;;5.00;;
51527;SDS011;37612;51.768;21.590;2023-03-05T13:34:27;11.00;;;4.90;;
51527;SDS011;37612;51.768;21.590;2023-03-05T13:42:38;23.40;;;14.10;;
51527;SDS011;37612;51.768;21.590;2023-03-05T13:46:40;101.20;;;39.50;;
51527;SDS011;37612;51.768;21.590;2023-03-05T13:50:41;40.00;;;17.80;;
51527;SDS011;37612;51.768;21.590;2023-03-05T13:54:43;32.20;;;17.60;;
51527;SDS011;37612;51.768;21.590;2023-03-05T13:58:46;19.40;;;10.70;;
51527;SDS011;37612;51.768;21.590;2023-03-05T14:02:53;19.80;;;8.50;;
51527;SDS011;37612;51.768;21.590;2023-03-05T14:07:21;12.50;;;4.70;;
51527;SDS011;37612;51.768;21.590;2023-03-05T14:11:28;15.20;;;6.10;;
51527;SDS011;37612;51.768;21.590;2023-03-05T14:15:31;14.50;;;6.40;;
51527;SDS011;37612;51.768;21.590;2023-03-05T14:19:36;17.20;;;6.60;;
51527;SDS011;37612;51.768;21.590;2023-03-05T14:23:42;17.10;;;7.60;;
51527;SDS011;37612;51.768;21.590;2023-03-05T14:27:45;15.50;;;7.20;;
51527;SDS011;37612;51.768;21.590;2023-03-05T14:31:48;20.30;;;10.30;;
51527;SDS011;37612;51.768;21.590;2023-03-05T14:35:51;18.00;;;8.20;;
51527;SDS011;37612;51.768;21.590;2023-03-05T14:39:55;15.50;;;7.20;;
51527;SDS011;37612;51.768;21.590;2023-03-05T14:44:10;11.70;;;6.60;;
51527;SDS011;37612;51.768;21.590;2023-03-05T14:48:17;18.10;;;8.80;;
51527;SDS011;37612;51.768;21.590;2023-03-05T14:52:20;37.00;;;16.50;;
51527;SDS011;37612;51.768;21.590;2023-03-05T14:56:25;14.70;;;7.60;;
51527;SDS011;37612;51.768;21.590;2023-03-05T15:00:28;21.50;;;10.10;;
51527;SDS011;37612;51.768;21.590;2023-03-05T15:04:29;24.50;;;10.00;;
51527;SDS011;37612;51.768;21.590;2023-03-05T15:08:31;22.00;;;10.50;;
51527;SDS011;37612;51.768;21.590;2023-03-05T15:12:33;24.40;;;10.40;;
51527;SDS011;37612;51.768;21.590;2023-03-05T15:16:34;23.00;;;10.10;;
51527;SDS011;37612;51.768;21.590;2023-03-05T15:20:36;26.20;;;12.10;;
51527;SDS011;37612;51.768;21.590;2023-03-05T15:24:39;26.60;;;13.90;;
51527;SDS011;37612;51.768;21.590;2023-03-05T15:28:44;26.40;;;12.90;;
51527;SDS011;37612;51.768;21.590;2023-03-05T15:32:45;24.30;;;13.00;;
51527;SDS011;37612;51.768;21.590;2023-03-05T15:36:46;23.00;;;12.30;;
51527;SDS011;37612;51.768;21.590;2023-03-05T15:40:48;19.10;;;10.30;;
51527;SDS011;37612;51.768;21.590;2023-03-05T15:44:50;26.90;;;14.90;;
51527;SDS011;37612;51.768;21.590;2023-03-05T15:48:51;25.80;;;12.40;;
51527;SDS011;37612;51.768;21.590;2023-03-05T15:52:53;25.50;;;12.40;;
51527;SDS011;37612;51.768;21.590;2023-03-05T15:56:54;24.50;;;11.30;;
51527;SDS011;37612;51.768;21.590;2023-03-05T16:00:55;22.70;;;11.60;;
51527;SDS011;37612;51.768;21.590;2023-03-05T16:04:56;20.30;;;11.30;;
51527;SDS011;37612;51.768;21.590;2023-03-05T16:08:59;18.60;;;10.00;;
51527;SDS011;37612;51.768;21.590;2023-03-05T16:13:11;23.80;;;12.50;;
51527;SDS011;37612;51.768;21.590;2023-03-05T16:17:16;39.70;;;19.90;;
51527;SDS011;37612;51.768;21.590;2023-03-05T16:21:19;18.90;;;10.20;;
51527;SDS011;37612;51.768;21.590;2023-03-05T16:25:30;21.00;;;10.30;;
51527;SDS011;37612;51.768;21.590;2023-03-05T16:29:32;18.50;;;9.40;;
51527;SDS011;37612;51.768;21.590;2023-03-05T16:33:34;19.80;;;9.40;;
51527;SDS011;37612;51.768;21.590;2023-03-05T16:37:36;26.40;;;11.70;;
51527;SDS011;37612;51.768;21.590;2023-03-05T16:41:37;19.80;;;10.70;;
51527;SDS011;37612;51.768;21.590;2023-03-05T16:45:39;20.20;;;9.80;;
51527;SDS011;37612;51.768;21.590;2023-03-05T16:49:40;20.40;;;10.80;;
51527;SDS011;37612;51.768;21.590;2023-03-05T16:53:41;17.30;;;9.00;;
51527;SDS011;37612;51.768;21.590;2023-03-05T16:57:43;25.20;;;13.50;;
51527;SDS011;37612;51.768;21.590;2023-03-05T17:01:45;28.50;;;13.40;;
51527;SDS011;37612;51.768;21.590;2023-03-05T17:05:49;24.30;;;10.40;;
51527;SDS011;37612;51.768;21.590;2023-03-05T17:09:54;24.00;;;11.40;;
51527;SDS011;37612;51.768;21.590;2023-03-05T17:13:55;65.10;;;29.90;;
51527;SDS011;37612;51.768;21.590;2023-03-05T17:18:02;49.50;;;25.60;;
51527;SDS011;37612;51.768;21.590;2023-03-05T17:22:08;41.80;;;20.10;;
51527;SDS011;37612;51.768;21.590;2023-03-05T17:26:13;52.10;;;31.90;;
51527;SDS011;37612;51.768;21.590;2023-03-05T17:30:19;37.00;;;20.40;;
51527;SDS011;37612;51.768;21.590;2023-03-05T17:34:27;38.00;;;21.20;;
51527;SDS011;37612;51.768;21.590;2023-03-05T17:38:28;35.90;;;18.60;;
51527;SDS011;37612;51.768;21.590;2023-03-05T17:42:43;35.00;;;20.60;;
51527;SDS011;37612;51.768;21.590;2023-03-05T17:46:44;37.80;;;19.50;;
51527;SDS011;37612;51.768;21.590;2023-03-05T17:50:51;40.40;;;19.00;;
51527;SDS011;37612;51.768;21.590;2023-03-05T17:54:58;33.80;;;16.00;;
51527;SDS011;37612;51.768;21.590;2023-03-05T17:59:00;26.00;;;14.10;;
51527;SDS011;37612;51.768;21.590;2023-03-05T18:03:01;29.50;;;14.40;;
51527;SDS011;37612;51.768;21.590;2023-03-05T18:07:04;26.90;;;13.50;;
51527;SDS011;37612;51.768;21.590;2023-03-05T18:11:06;30.80;;;14.40;;
51527;SDS011;37612;51.768;21.590;2023-03-05T18:15:09;36.00;;;17.00;;
51527;SDS011;37612;51.768;21.590;2023-03-05T18:19:18;35.20;;;18.20;;
51527;SDS011;37612;51.768;21.590;2023-03-05T18:23:20;31.80;;;16.00;;
51527;SDS011;37612;51.768;21.590;2023-03-05T18:27:22;35.10;;;16.10;;
51527;SDS011;37612;51.768;21.590;2023-03-05T18:31:34;35.10;;;17.30;;
51527;SDS011;37612;51.768;21.590;2023-03-05T18:35:36;44.70;;;20.70;;
51527;SDS011;37612;51.768;21.590;2023-03-05T18:39:38;43.60;;;19.90;;
51527;SDS011;37612;51.768;21.590;2023-03-05T18:43:39;31.60;;;15.50;;
51527;SDS011;37612;51.768;21.590;2023-03-05T18:47:43;26.00;;;13.40;;
51527;SDS011;37612;51.768;21.590;2023-03-05T18:51:44;35.30;;;18.90;;
51527;SDS011;37612;51.768;21.590;2023-03-05T18:55:46;44.90;;;22.70;;
51527;SDS011;37612;51.768;21.590;2023-03-05T18:59:48;45.70;;;21.20;;
51527;SDS011;37612;51.768;21.590;2023-03-05T19:03:49;35.30;;;19.30;;
51527;SDS011;37612;51.768;21.590;2023-03-05T19:07:51;40.30;;;20.50;;
51527;SDS011;37612;51.768;21.590;2023-03-05T19:11:53;50.80;;;24.70;;
51527;SDS011;37612;51.768;21.590;2023-03-05T19:15:55;56.60;;;32.60;;
51527;SDS011;37612;51.768;21.590;2023-03-05T19:19:56;59.30;;;31.40;;
51527;SDS011;37612;51.768;21.590;2023-03-05T19:23:59;54.90;;;26.00;;
51527;SDS011;37612;51.768;21.590;2023-03-05T19:28:07;39.50;;;21.30;;
51527;SDS011;37612;51.768;21.590;2023-03-05T19:32:18;38.50;;;20.00;;
51527;SDS011;37612;51.768;21.590;2023-03-05T19:36:26;37.00;;;19.20;;
51527;SDS011;37612;51.768;21.590;2023-03-05T19:41:17;47.80;;;22.10;;
51527;SDS011;37612;51.768;21.590;2023-03-05T19:45:30;48.50;;;23.10;;
51527;SDS011;37612;51.768;21.590;2023-03-05T19:49:34;38.20;;;18.60;;
51527;SDS011;37612;51.768;21.590;2023-03-05T19:53:40;38.60;;;18.40;;
51527;SDS011;37612;51.768;21.590;2023-03-05T19:57:41;53.20;;;24.50;;
51527;SDS011;37612;51.768;21.590;2023-03-05T20:01:43;47.40;;;23.50;;
51527;SDS011;37612;51.768;21.590;2023-03-05T20:05:45;31.80;;;16.40;;
51527;SDS011;37612;51.768;21.590;2023-03-05T20:09:47;39.70;;;18.10;;
51527;SDS011;37612;51.768;21.590;2023-03-05T20:13:50;46.70;;;20.90;;
51527;SDS011;37612;51.768;21.590;2023-03-05T20:17:52;35.30;;;18.00;;
51527;SDS011;37612;51.768;21.590;2023-03-05T20:21:53;37.10;;;18.50;;
51527;SDS011;37612;51.768;21.590;2023-03-05T20:25:55;64.50;;;27.20;;
51527;SDS011;37612;51.768;21.590;2023-03-05T20:30:06;41.90;;;18.10;;
51527;SDS011;37612;51.768;21.590;2023-03-05T20:34:14;47.40;;;21.20;;
51527;SDS011;37612;51.768;21.590;2023-03-05T20:38:22;40.70;;;18.50;;
51527;SDS011;37612;51.768;21.590;2023-03-05T20:42:49;46.90;;;19.00;;
51527;SDS011;37612;51.768;21.590;2023-03-05T20:47:01;41.30;;;19.90;;
51527;SDS011;37612;51.768;21.590;2023-03-05T20:51:41;52.40;;;23.10;;
51527;SDS011;37612;51.768;21.590;2023-03-05T20:55:44;50.30;;;23.50;;
51527;SDS011;37612;51.768;21.590;2023-03-05T20:59:46;46.70;;;19.10;;
51527;SDS011;37612;51.768;21.590;2023-03-05T21:03:47;50.00;;;20.80;;
51527;SDS011;37612;51.768;21.590;2023-03-05T21:08:01;53.70;;;21.60;;
51527;SDS011;37612;51.768;21.590;2023-03-05T21:16:07;52.70;;;23.70;;
51527;SDS011;37612;51.768;21.590;2023-03-05T21:20:15;46.30;;;20.50;;
51527;SDS011;37612;51.768;21.590;2023-03-05T21:24:19;45.90;;;20.80;;
51527;SDS011;37612;51.768;21.590;2023-03-05T21:29:04;52.40;;;20.40;;
51527;SDS011;37612;51.768;21.590;2023-03-05T21:33:06;79.90;;;31.90;;
51527;SDS011;37612;51.768;21.590;2023-03-05T21:37:11;84.40;;;33.50;;
51527;SDS011;37612;51.768;21.590;2023-03-05T21:41:12;69.70;;;30.70;;
51527;SDS011;37612;51.768;21.590;2023-03-05T21:45:15;71.30;;;29.40;;
51527;SDS011;37612;51.768;21.590;2023-03-05T21:49:21;72.70;;;28.70;;
51527;SDS011;37612;51.768;21.590;2023-03-05T21:53:23;103.50;;;41.40;;
51527;SDS011;37612;51.768;21.590;2023-03-05T21:57:24;98.70;;;40.10;;
51527;SDS011;37612;51.768;21.590;2023-03-05T22:01:28;71.00;;;31.00;;
51527;SDS011;37612;51.768;21.590;2023-03-05T22:05:29;67.70;;;29.70;;
51527;SDS011;37612;51.768;21.590;2023-03-05T22:09:30;64.00;;;29.00;;
51527;SDS011;37612;51.768;21.590;2023-03-05T22:13:31;90.50;;;38.30;;
51527;SDS011;37612;51.768;21.590;2023-03-05T22:17:32;87.90;;;35.20;;
51527;SDS011;37612;51.768;21.590;2023-03-05T22:21:34;69.20;;;28.40;;
51527;SDS011;37612;51.768;21.590;2023-03-05T22:25:35;64.10;;;26.00;;
51527;SDS011;37612;51.768;21.590;2023-03-05T22:29:40;62.50;;;25.50;;
51527;SDS011;37612;51.768;21.590;2023-03-05T22:33:42;86.90;;;35.70;;
51527;SDS011;37612;51.768;21.590;2023-03-05T22:37:43;66.00;;;31.70;;
51527;SDS011;37612;51.768;21.590;2023-03-05T22:41:45;53.40;;;24.80;;
51527;SDS011;37612;51.768;21.590;2023-03-05T22:45:47;55.80;;;23.10;;
51527;SDS011;37612;51.768;21.590;2023-03-05T22:49:49;53.30;;;22.20;;
51527;SDS011;37612;51.768;21.590;2023-03-05T22:53:50;47.60;;;20.00;;
51527;SDS011;37612;51.768;21.590;2023-03-05T22:57:52;57.60;;;25.00;;
51527;SDS011;37612;51.768;21.590;2023-03-05T23:01:53;55.40;;;23.50;;
51527;SDS011;37612;51.768;21.590;2023-03-05T23:05:54;42.50;;;18.80;;
51527;SDS011;37612;51.768;21.590;2023-03-05T23:09:58;46.00;;;17.90;;
51527;SDS011;37612;51.768;21.590;2023-03-05T23:14:00;43.80;;;15.70;;
51527;SDS011;37612;51.768;21.590;2023-03-05T23:18:02;31.80;;;12.10;;
51527;SDS011;37612;51.768;21.590;2023-03-05T23:22:06;46.30;;;18.30;;
51527;SDS011;37612;51.768;21.590;2023-03-05T23:26:09;55.20;;;21.80;;
51527;SDS011;37612;51.768;21.590;2023-03-05T23:30:16;52.70;;;21.10;;
51527;SDS011;37612;51.768;21.590;2023-03-05T23:34:19;35.20;;;15.20;;
51527;SDS011;37612;51.768;21.590;2023-03-05T23:38:21;30.90;;;14.20;;
51527;SDS011;37612;51.768;21.590;2023-03-05T23:42:23;39.70;;;16.50;;
51527;SDS011;37612;51.768;21.590;2023-03-05T23:46:24;34.60;;;15.70;;
51527;SDS011;37612;51.768;21.590;2023-03-05T23:54:31;50.50;;;18.50;;
51527;SDS011;37612;51.768;21.590;2023-03-05T23:58:38;54.30;;;20.10;;
